Tiempo atmosférico en la estación meteorológica de Calvià, Son Vic Nou, Illes Balears (35 m.)



Fecha
DESCASC
Temp. máxima en grados centígrados (hora)
DESCASC
Temp. mínima en grados centígrados (hora)
DESCASC
Temp. media en grados centígrados
DESCASC
Racha de viento máxima en m/sg (hora)
DESCASC
Velocidad máxima media en intervalos de 10 minutos(hora)
DESCASC
Precipitaciones diarias en mm
DESCASC
Precipitaciones de 00:00 a 06:00 en mm
DESCASC
Precipitaciones de 06:00 a 12:00 en mm
DESCASC
Precipitaciones de 12:00 a 18:00 en mm
DESCASC
Precipitaciones de 18:00 a 24:00 en mm
DESCASC

Gráficas

Temp. máximas Temp. mínimas Temp. medias Precipitaciones Rachas de viento máximas Velocidades máximas media en intervalos de 10 minutos

Datos horarios

Fecha y hora oficial Temperatura (ºC) Velocidad del viento (km/h) Dirección del viento Racha (km/h) Dirección de racha Precipitación (mm) Presión (hPa) Tendencia (hPa) Humedad (%)
2018-01-20 23:00:00 17.4 14 Noroeste 35 Noroeste 0 -- -- 55
2018-01-20 22:00:00 15.9 14 Noroeste 28 Oeste 0 -- -- 67
2018-01-20 21:00:00 14.5 12 Oeste 20 Noroeste 0 -- -- 73
2018-01-20 20:00:00 13.2 8 Oeste 14 Oeste 0 -- -- 74
2018-01-20 19:00:00 13.9 7 Oeste 22 Sudoeste 0 -- -- 68
2018-01-20 18:00:00 14 9 Oeste 27 Oeste 0 -- -- 66
2018-01-20 17:00:00 15.6 16 Oeste 32 Oeste 0 -- -- 59
2018-01-20 16:00:00 16.1 14 Oeste 28 Oeste 0 -- -- 61
2018-01-20 15:00:00 16.2 12 Oeste 30 Oeste 0 -- -- 62
2018-01-20 14:00:00 16.3 14 Oeste 34 Oeste 0 -- -- 55
2018-01-20 13:00:00 16.2 10 Noroeste 25 Noroeste 0 -- -- 58
2018-01-20 12:00:00 15.5 7 Noroeste 20 Norte 0 -- -- 63
2018-01-20 11:00:00 13.6 12 Norte 21 Noroeste 0 -- -- 73
2018-01-20 10:00:00 12.5 4 Sur 6 Sur 0 -- -- 83
2018-01-20 09:00:00 8.9 0 Calma 5 Este 0 -- -- 84
2018-01-20 08:00:00 10.3 3 Noroeste 20 Norte 0 -- -- 77
2018-01-20 07:00:00 12.2 8 Norte 25 Norte 0 -- -- 75
2018-01-20 06:00:00 12.4 14 Norte 31 Norte 0 -- -- 74
2018-01-20 05:00:00 12.7 17 Norte 33 Norte 0 -- -- 74
2018-01-20 04:00:00 12.7 19 Norte 33 Norte 0 -- -- 76
2018-01-20 03:00:00 12.4 8 Norte 30 Norte 0 -- -- 78
2018-01-20 02:00:00 12.5 15 Norte 36 Noroeste 0 -- -- 93
2018-01-20 01:00:00 6.7 2 Este 9 Este 0 -- -- 96
2018-01-20 00:00:00 7.1 2 Norte 8 Este 0 -- -- 95
2018-01-19 23:00:00 6.9 4 Nordeste 10 Este 0 -- -- 94
2018-01-19 22:00:00 8.1 5 Este 11 Este 0 -- -- 93
2018-01-19 21:00:00 7.8 0 Calma 8 Este 0 -- -- 92
2018-01-19 20:00:00 8.3 2 Este 7 Este 0 -- -- 90
2018-01-19 19:00:00 9.3 3 Este 6 Noroeste 0 -- -- 88
2018-01-19 18:00:00 11.2 0 Calma 7 Noroeste 0 -- -- 84
2018-01-19 17:00:00 13.9 3 Noroeste 13 Oeste 0 -- -- 81
2018-01-19 16:00:00 14 4 Oeste 14 Oeste 0 -- -- 84
2018-01-19 15:00:00 14 8 Sudoeste 15 Sudoeste 0 -- -- 81
2018-01-19 14:00:00 14.1 9 Sudoeste 17 Sur 0 -- -- 80
2018-01-19 13:00:00 14.8 10 Sudoeste 17 Sur 0 -- -- 78
2018-01-19 12:00:00 15.5 8 Sudoeste 13 Sudoeste 0 -- -- 85
2018-01-19 11:00:00 13.3 2 Sudeste 3 Sudeste 0 -- -- 95
2018-01-19 10:00:00 9 0 Calma 5 Este 0 -- -- 97
2018-01-19 09:00:00 7.4 4 Este 6 Este 0 -- -- 96
2018-01-19 08:00:00 7.3 2 Este 5 Norte 0 -- -- 96
2018-01-19 07:00:00 7.1 3 Norte 7 Nordeste 0 -- -- 96
2018-01-19 06:00:00 7.6 0 Calma 9 Este 0 -- -- 96
2018-01-19 05:00:00 7.6 2 Nordeste 6 Este 0 -- -- 95
2018-01-19 04:00:00 7.6 3 Este 8 Este 0 -- -- 95
2018-01-19 03:00:00 7.7 4 Este 8 Este 0 -- -- 93
2018-01-19 02:00:00 7.7 2 Este 8 Este 0 -- -- 93
2018-01-19 01:00:00 7.8 2 Sudeste 5 Este 0 -- -- 93
2018-01-19 00:00:00 8.4 3 Este 9 Este 0 -- -- 92
2018-01-18 23:00:00 8.5 2 Nordeste 8 Este 0 -- -- 91
2018-01-18 22:00:00 9.1 3 Este 5 Nordeste 0 -- -- 87
2018-01-18 21:00:00 10.7 3 Este 4 Este 0 -- -- 84
2018-01-18 20:00:00 11.9 0 Calma 6 Nordeste 0 -- -- 81
2018-01-18 19:00:00 13.1 0 Calma 9 Sudoeste 0 -- -- 78
2018-01-18 18:00:00 13.7 5 Sudoeste 9 Sudoeste 0 -- -- 75
2018-01-18 17:00:00 14.3 7 Sudoeste 11 Sudoeste 0 -- -- 73
2018-01-18 16:00:00 14.7 7 Sudoeste 13 Sudoeste 0 -- -- 72
2018-01-18 15:00:00 15.1 8 Sudoeste 18 Sudoeste 0 -- -- 73
2018-01-18 14:00:00 16.6 9 Sudoeste 19 Sudoeste 0 -- -- 70
2018-01-18 13:00:00 16.1 12 Sudoeste 20 Sudoeste 0 -- -- 73
2018-01-18 12:00:00 15.1 9 Sudoeste 16 Sudoeste 0 -- -- 76
2018-01-18 11:00:00 14.8 4 Sudeste 12 Este 0 -- -- 82
2018-01-18 10:00:00 14.1 4 Este 8 Este 0 -- -- 91
2018-01-18 09:00:00 9 2 Nordeste 8 Norte 0 -- -- 95
2018-01-18 08:00:00 8 2 Este 6 Nordeste 0 -- -- 94
2018-01-18 07:00:00 7.7 2 Nordeste 5 Norte 0 -- -- 93
2018-01-18 06:00:00 8.1 0 Calma 8 Norte 0 -- -- 92
2018-01-18 05:00:00 8.6 0 Calma 6 Norte 0 -- -- 91
2018-01-18 04:00:00 8.3 0 Calma 5 Nordeste 0 -- -- 90
2018-01-18 03:00:00 8.4 3 Norte 6 Nordeste 0 -- -- 88
2018-01-18 02:00:00 10.2 5 Nordeste 9 Nordeste 0 -- -- 85
2018-01-18 01:00:00 10 3 Norte 8 Nordeste 0 -- -- 85
2018-01-18 00:00:00 10.8 4 Nordeste 10 Nordeste 0 -- -- 84
2018-01-17 23:00:00 11.1 6 Nordeste 12 Nordeste 0 -- -- 82
2018-01-17 22:00:00 10.1 4 Nordeste 8 Norte 0 -- -- 82
2018-01-17 21:00:00 8.8 3 Norte 18 Noroeste 0 -- -- 76
2018-01-17 20:00:00 9.5 3 Norte 11 Noroeste 0 -- -- 72
2018-01-17 19:00:00 12.3 4 Nordeste 26 Norte 0 -- -- 63
2018-01-17 18:00:00 13.8 6 Norte 42 Noroeste 0 -- -- 59
2018-01-17 17:00:00 15.4 17 Noroeste 44 Noroeste 0 -- -- 54
2018-01-17 16:00:00 16.4 21 Noroeste 45 Noroeste 0 -- -- 49
2018-01-17 15:00:00 16.7 26 Noroeste 46 Noroeste 0 -- -- 49
2018-01-17 14:00:00 17.7 17 Noroeste 47 Noroeste 0 -- -- 49
2018-01-17 13:00:00 17.4 23 Noroeste 51 Noroeste 0 -- -- 51
2018-01-17 12:00:00 17.6 12 Norte 55 Oeste 0 -- -- 55
2018-01-17 11:00:00 17.7 9 Norte 36 Oeste 0 -- -- 58
2018-01-17 10:00:00 16.7 13 Oeste 35 Oeste 0 -- -- 64
2018-01-17 09:00:00 15.7 18 Oeste 37 Oeste 0 -- -- 65
2018-01-17 08:00:00 15.4 19 Oeste 36 Oeste 0 -- -- 64
2018-01-17 07:00:00 16.1 15 Oeste 34 Oeste 0 -- -- 65
2018-01-17 06:00:00 14.3 15 Oeste 33 Oeste 0 -- -- 77
2018-01-17 05:00:00 14.2 18 Oeste 31 Oeste 0 -- -- 76
2018-01-17 04:00:00 14.5 13 Oeste 23 Oeste 0 -- -- 74
2018-01-17 03:00:00 15 13 Noroeste 30 Noroeste 0 -- -- 73
2018-01-17 02:00:00 14.1 5 Noroeste 34 Oeste 0 -- -- 78
2018-01-17 01:00:00 14.7 23 Oeste 43 Oeste 0 -- -- 77
2018-01-17 00:00:00 15.1 30 Oeste 42 Oeste 0 -- -- 74
2018-01-16 23:00:00 15.3 23 Noroeste 39 Noroeste 0 -- -- 75
2018-01-16 22:00:00 14.6 16 Oeste 30 Noroeste 0 -- -- 74
2018-01-16 21:00:00 14.1 12 Oeste 23 Oeste 0 -- -- 74
2018-01-16 20:00:00 13.9 10 Oeste 27 Oeste 0 -- -- 72
2018-01-16 19:00:00 14.4 15 Oeste 29 Oeste 0 -- -- 67
2018-01-16 18:00:00 14.4 13 Oeste 33 Oeste 0 -- -- 64
2018-01-16 17:00:00 16.2 13 Oeste 36 Oeste 0 -- -- 56
2018-01-16 16:00:00 16.2 14 Oeste 34 Sudoeste 0 -- -- 61
2018-01-16 15:00:00 16.4 17 Oeste 31 Oeste 0 -- -- 60
2018-01-16 14:00:00 16.4 16 Oeste 38 Oeste 0 -- -- 61
2018-01-16 13:00:00 16 15 Oeste 42 Sudoeste 0 -- -- 63
2018-01-16 12:00:00 15.3 18 Oeste 40 Oeste 0 -- -- 64
2018-01-16 11:00:00 14.9 17 Oeste 37 Sudoeste 0 -- -- 63
2018-01-16 10:00:00 14 19 Oeste 36 Oeste 0 -- -- 65
2018-01-16 09:00:00 13.2 14 Oeste 29 Oeste 0 -- -- 66
2018-01-16 08:00:00 12.7 14 Sudoeste 33 Oeste 0 -- -- 70
2018-01-16 07:00:00 12.5 14 Sudoeste 27 Sudoeste 0 -- -- 76
2018-01-16 06:00:00 12.3 11 Sudoeste 28 Oeste 0 -- -- 80
2018-01-16 05:00:00 12.5 16 Oeste 33 Sudoeste 0 -- -- 80
2018-01-16 04:00:00 12.1 12 Oeste 27 Oeste 0 -- -- 79
2018-01-16 03:00:00 11.9 9 Oeste 27 Oeste 0 -- -- 81
2018-01-16 02:00:00 11.5 10 Oeste 24 Oeste 0 -- -- 92
2018-01-16 01:00:00 4.9 5 Este 10 Este 0 -- -- 93
2018-01-16 00:00:00 4.7 7 Este 10 Este 0 -- -- 92
2018-01-15 23:00:00 4.1 4 Este 10 Este 0 -- -- 90
2018-01-15 22:00:00 4.7 2 Este 6 Este 0 -- -- 88
2018-01-15 21:00:00 4.5 3 Nordeste 8 Este 0 -- -- 86
2018-01-15 20:00:00 5.7 0 Calma 5 Norte 0 -- -- 82
2018-01-15 19:00:00 7.1 0 Calma 8 Noroeste 0 -- -- 73
2018-01-15 18:00:00 10.3 6 Noroeste 15 Noroeste 0 -- -- 66
2018-01-15 17:00:00 12.9 10 Norte 17 Noroeste 0 -- -- 59
2018-01-15 16:00:00 14.3 11 Noroeste 18 Noroeste 0 -- -- 56
2018-01-15 15:00:00 14.8 10 Noroeste 25 Noroeste 0 -- -- 59
2018-01-15 14:00:00 14.5 14 Noroeste 27 Norte 0 -- -- 63
2018-01-15 13:00:00 15.2 9 Noroeste 17 Noroeste 0 -- -- 63
2018-01-15 12:00:00 14.1 8 Noroeste 17 Noroeste 0 -- -- 69
2018-01-15 11:00:00 13.2 5 Noroeste 11 Noroeste 0 -- -- 85
2018-01-15 10:00:00 9.2 3 Sudeste 9 Este 0 -- -- 96
2018-01-15 09:00:00 4.1 4 Este 9 Este 0 -- -- 97
2018-01-15 08:00:00 3.6 0 Calma 9 Este 0 -- -- 96
2018-01-15 07:00:00 3.7 2 Este 6 Nordeste 0 -- -- 95
2018-01-15 06:00:00 4.3 0 Calma 4 Noroeste 0 -- -- 97
2018-01-15 05:00:00 3.8 0 Calma 13 Norte 0 -- -- 94
2018-01-15 04:00:00 3.5 0 Calma 6 Este 0 -- -- 94
2018-01-15 03:00:00 3.2 0 Calma 5 Este 0 -- -- 93
2018-01-15 02:00:00 3.8 4 Este 11 Este 0 -- -- 92
2018-01-15 01:00:00 3.8 2 Este 10 Este 0 -- -- 90
2018-01-15 00:00:00 4.5 3 Norte 9 Este 0 -- -- 90
2018-01-14 23:00:00 4.3 3 Este 8 Este 0 -- -- 86
2018-01-14 22:00:00 5.5 0 Calma 8 Norte 0 -- -- 84
2018-01-14 21:00:00 6.2 2 Este 8 Este 0 -- -- 83
2018-01-14 20:00:00 6.6 2 Este 6 Este 0 -- -- 80
2018-01-14 19:00:00 7 0 Calma 6 Norte 0 -- -- 75
2018-01-14 18:00:00 10 3 Nordeste 10 Norte 0 -- -- 66
2018-01-14 17:00:00 13.1 6 Norte 12 Noroeste 0 -- -- 59
2018-01-14 16:00:00 12.8 4 Noroeste 23 Norte 0 -- -- 60
2018-01-14 15:00:00 14.2 9 Noroeste 26 Oeste 0 -- -- 58
2018-01-14 14:00:00 14.9 7 Noroeste 25 Oeste 0 -- -- 62
2018-01-14 13:00:00 13.9 10 Noroeste 21 Norte 0 -- -- 63
2018-01-14 12:00:00 13 10 Norte 20 Noroeste 0 -- -- 67
2018-01-14 11:00:00 12.5 9 Noroeste 18 Noroeste 0 -- -- 69
2018-01-14 10:00:00 11.5 7 Norte 17 Noroeste 0 -- -- 72
2018-01-14 09:00:00 10.6 5 Norte 23 Noroeste 0 -- -- 72
2018-01-14 08:00:00 11.6 10 Noroeste 36 Sudoeste 0 -- -- 69
2018-01-14 07:00:00 12 18 Oeste 37 Oeste 0 -- -- 69
2018-01-14 06:00:00 12.6 17 Oeste 36 Sudoeste 0 -- -- 68
2018-01-14 05:00:00 12.7 12 Sudoeste 32 Sudoeste 0 -- -- 73
2018-01-14 04:00:00 13.1 14 Sudoeste 27 Sudoeste 0 -- -- 70
2018-01-14 03:00:00 13 13 Sudoeste 25 Sudoeste 0 -- -- 69
2018-01-14 02:00:00 12.9 14 Sudoeste 24 Sudoeste 0 -- -- 68
2018-01-14 01:00:00 12.7 12 Sur 20 Sudoeste 0 -- -- 67
2018-01-14 00:00:00 12.3 6 Sur 22 Sudeste 0 -- -- 68
2018-01-13 23:00:00 12.3 9 Sur 22 Sudoeste 0 -- -- 70
2018-01-13 22:00:00 12.1 10 Sur 22 Sudoeste 0 -- -- 71
2018-01-13 21:00:00 12.4 11 Sur 24 Sur 0 -- -- 71
2018-01-13 20:00:00 12.7 9 Sur 22 Sudoeste 0 -- -- 70
2018-01-13 19:00:00 12.6 9 Sur 15 Sur 0 -- -- 70
2018-01-13 18:00:00 12.6 7 Sur 20 Sudeste 0 -- -- 70
2018-01-13 17:00:00 12.8 9 Sudeste 17 Sudeste 0 -- -- 67
2018-01-13 16:00:00 13.4 6 Sur 18 Sudeste 0 -- -- 65
2018-01-13 15:00:00 13.1 8 Sudeste 20 Sur 0 -- -- 68
2018-01-13 14:00:00 13.2 6 Sudeste 19 Este 0 -- -- 66
2018-01-13 13:00:00 14.2 8 Sudeste 25 Sur 0 -- -- 63
2018-01-13 12:00:00 13.7 9 Sudeste 18 Sudeste 0 -- -- 63
2018-01-13 11:00:00 13 4 Este 9 Sudeste 0 -- -- 73
2018-01-13 10:00:00 9.5 0 Calma 10 Norte 0 -- -- 87
2018-01-13 09:00:00 4.8 2 Nordeste 6 Este 0 -- -- 92
2018-01-13 08:00:00 4.2 4 Este 10 Este 0 -- -- 91
2018-01-13 07:00:00 4.1 2 Nordeste 10 Este 0 -- -- 92
2018-01-13 06:00:00 4.7 0 Calma 11 Este 0 -- -- 92
2018-01-13 05:00:00 3.8 3 Este 9 Este 0 -- -- 91
2018-01-13 04:00:00 4 4 Este 8 Este 0 -- -- 91
2018-01-13 03:00:00 4 5 Este 10 Este 0 -- -- 89
2018-01-13 02:00:00 4.3 4 Este 9 Este 0 -- -- 86
2018-01-13 01:00:00 5.5 3 Norte 11 Este 0 -- -- 82
2018-01-13 00:00:00 7.2 2 Norte 13 Este 0 -- -- 77
2018-01-12 23:00:00 10.1 2 Nordeste 20 Noroeste 0 -- -- 76
2018-01-12 22:00:00 7.5 8 Norte 12 Noroeste 0 -- -- 82
2018-01-12 21:00:00 8 7 Noroeste 18 Norte 0 -- -- 77
2018-01-12 20:00:00 7.6 5 Norte 17 Oeste 0 -- -- 73
2018-01-12 19:00:00 11.1 9 Noroeste 24 Noroeste 0 -- -- 65
2018-01-12 18:00:00 11.2 5 Noroeste 18 Norte 0 -- -- 65
2018-01-12 17:00:00 12.1 9 Norte 31 Noroeste 0 -- -- 64
2018-01-12 16:00:00 13.5 18 Norte 36 Norte 0 -- -- 62
2018-01-12 15:00:00 13.5 18 Norte 28 Norte 0 -- -- 61
2018-01-12 14:00:00 14.3 14 Oeste 22 Oeste 0 -- -- 61
2018-01-12 13:00:00 14.6 12 Noroeste 24 Oeste 0 -- -- 61
2018-01-12 12:00:00 14.7 4 Sur 10 Sudoeste 0 -- -- 62
2018-01-12 11:00:00 13.2 4 Norte 16 Norte 0 -- -- 69
2018-01-12 10:00:00 12.1 12 Norte 21 Norte 0 -- -- 77
2018-01-12 09:00:00 10.1 9 Noroeste 19 Norte 0 -- -- 92
2018-01-12 08:00:00 5.5 0 Calma 9 Noroeste 0 -- -- 89
2018-01-12 07:00:00 5.7 2 Norte 6 Noroeste 0 -- -- 87
2018-01-12 06:00:00 5.9 0 Calma 6 Noroeste 0 -- -- 80
2018-01-12 05:00:00 8.6 2 Norte 13 Noroeste 0 -- -- 73
2018-01-12 04:00:00 10.4 5 Norte 21 Noroeste 0 -- -- 72
2018-01-12 03:00:00 10.9 10 Norte 30 Norte 0 -- -- 70
2018-01-12 02:00:00 10.9 16 Norte 35 Noroeste 0 -- -- 69
2018-01-12 01:00:00 11.2 15 Noroeste 31 Norte 0 -- -- 67
2018-01-12 00:00:00 11.3 10 Noroeste 27 Noroeste 0 -- -- 66
2018-01-11 23:00:00 11.5 11 Noroeste 26 Norte 0 -- -- 64
2018-01-11 22:00:00 11.8 16 Noroeste 39 Noroeste 0 -- -- 61
2018-01-11 21:00:00 12.1 18 Noroeste 35 Noroeste 0 -- -- 59
2018-01-11 20:00:00 12.1 14 Noroeste 42 Noroeste 0 -- -- 60
2018-01-11 19:00:00 11.7 10 Noroeste 40 Norte 0 -- -- 59
2018-01-11 18:00:00 11.5 18 Norte 51 Noroeste 0 -- -- 58
2018-01-11 17:00:00 12 13 Norte 48 Norte 0 -- -- 54
2018-01-11 16:00:00 12 23 Norte 41 Norte 0 -- -- 54
2018-01-11 15:00:00 12.9 15 Norte 42 Norte 0 -- -- 57
2018-01-11 14:00:00 12.5 18 Norte 41 Norte 0 -- -- 57
2018-01-11 13:00:00 12.7 21 Noroeste 43 Noroeste 0 -- -- 56
2018-01-11 12:00:00 12 18 Norte 39 Norte 0 -- -- 54
2018-01-11 11:00:00 13.5 11 Norte 33 Norte 0 -- -- 54
2018-01-11 10:00:00 11.9 10 Noroeste 37 Noroeste 0 -- -- 56
2018-01-11 09:00:00 11.8 16 Noroeste 26 Norte 0 -- -- 57
2018-01-11 08:00:00 11.5 8 Noroeste 35 Noroeste 0 -- -- 59
2018-01-11 07:00:00 11.4 14 Norte 49 Noroeste 0 -- -- 58
2018-01-11 06:00:00 11.8 19 Noroeste 50 Noroeste 0 -- -- 61
2018-01-11 05:00:00 12.2 25 Noroeste 47 Norte 0 -- -- 63
2018-01-11 04:00:00 12.6 20 Noroeste 53 Norte 0 -- -- 64
2018-01-11 03:00:00 13.5 24 Oeste 59 Noroeste 0 -- -- 69
2018-01-11 02:00:00 13.9 22 Oeste 49 Sudoeste 0 -- -- 71
2018-01-11 01:00:00 14 13 Oeste 42 Sudoeste 0 -- -- 74
2018-01-11 00:00:00 13.3 10 Oeste 26 Oeste 0 -- -- 89
2018-01-10 23:00:00 6.9 5 Este 8 Este 0 -- -- 95
2018-01-10 22:00:00 7.4 0 Calma 7 Noroeste 0 -- -- 94
2018-01-10 21:00:00 7.4 3 Noroeste 8 Este 0 -- -- 92
2018-01-10 20:00:00 7.6 4 Nordeste 9 Nordeste 0 -- -- 90
2018-01-10 19:00:00 8.8 0 Calma 10 Noroeste 0 -- -- 85
2018-01-10 18:00:00 10.8 3 Noroeste 18 Oeste 0 -- -- 79
2018-01-10 17:00:00 13.2 10 Oeste 24 Sudoeste 0 -- -- 76
2018-01-10 16:00:00 14 12 Oeste 27 Sudoeste 0 -- -- 75
2018-01-10 15:00:00 13.7 9 Oeste 28 Oeste 0 -- -- 73
2018-01-10 14:00:00 15.1 14 Oeste 29 Oeste 0 -- -- 73
2018-01-10 13:00:00 13.8 14 Oeste 23 Sudoeste 0 -- -- 84
2018-01-10 12:00:00 13 12 Sudoeste 24 Sudoeste 0 -- -- 82
2018-01-10 11:00:00 13 13 Oeste 27 Sudoeste 0 -- -- 78
2018-01-10 10:00:00 12.3 12 Sudoeste 29 Sudoeste 0 -- -- 78
2018-01-10 09:00:00 12.5 15 Oeste 26 Oeste 0 -- -- 75
2018-01-10 08:00:00 12.5 17 Oeste 31 Oeste 0 -- -- 74
2018-01-10 07:00:00 12.9 17 Oeste 32 Oeste 0 -- -- 75
2018-01-10 06:00:00 12.9 10 Oeste 23 Sudoeste 0 -- -- 74
2018-01-10 05:00:00 13 12 Sudoeste 29 Sudoeste 0 -- -- 74
2018-01-10 04:00:00 12.5 7 Oeste 23 Sudoeste 0 -- -- 74
2018-01-10 03:00:00 12.5 13 Oeste 26 Oeste 0 -- -- 73
2018-01-10 02:00:00 12.5 11 Oeste 31 Sudoeste 0 -- -- 72
2018-01-10 01:00:00 12.5 12 Sudoeste 30 Sudoeste 0 -- -- 70
2018-01-10 00:00:00 12.8 17 Sudoeste 35 Oeste 0 -- -- 68
2018-01-09 23:00:00 12.4 11 Sudoeste 30 Sudoeste 0 -- -- 69
2018-01-09 22:00:00 12.4 14 Sudoeste 27 Sudoeste 0 -- -- 67
2018-01-09 21:00:00 12.5 12 Sudoeste 28 Sudoeste 0 -- -- 67
2018-01-09 20:00:00 12.8 13 Sudoeste 23 Sudoeste 0 -- -- 72
2018-01-09 19:00:00 11.3 3 Oeste 13 Sudoeste 0 -- -- 70
2018-01-09 18:00:00 12.2 5 Oeste 18 Oeste 0 -- -- 66
2018-01-09 17:00:00 13.8 8 Oeste 22 Oeste 0 -- -- 66
2018-01-09 16:00:00 15.2 14 Oeste 26 Oeste 0 -- -- 62
2018-01-09 15:00:00 15.4 12 Sudoeste 28 Oeste 0 -- -- 62
2018-01-09 14:00:00 14.8 15 Oeste 33 Oeste 0 -- -- 64
2018-01-09 13:00:00 15.3 13 Oeste 33 Oeste 0 -- -- 66
2018-01-09 12:00:00 14.7 16 Sudoeste 29 Sudoeste 0 -- -- 71
2018-01-09 11:00:00 14.2 14 Sudoeste 24 Oeste 0 -- -- 70
2018-01-09 10:00:00 13.5 14 Sudoeste 25 Sudoeste 0 -- -- 71
2018-01-09 09:00:00 12.1 8 Sudoeste 19 Sudoeste 0 -- -- 72
2018-01-09 08:00:00 11.5 5 Sudoeste 19 Oeste 0 -- -- 72
2018-01-09 07:00:00 11.6 8 Oeste 22 Oeste 0 -- -- 73
2018-01-09 06:00:00 11.6 7 Oeste 14 Sudoeste 0 -- -- 74
2018-01-09 05:00:00 11.5 5 Oeste 22 Sudoeste 0 -- -- 74
2018-01-09 04:00:00 11.4 6 Sudoeste 18 Sudoeste 0 -- -- 73
2018-01-09 03:00:00 11.2 5 Oeste 19 Noroeste 0 -- -- 73
2018-01-09 02:00:00 11.4 6 Oeste 14 Oeste 0 -- -- 74
2018-01-09 01:00:00 10.3 4 Oeste 10 Noroeste 0 -- -- 81
2018-01-09 00:00:00 9 0 Calma 12 Oeste 0 -- -- 80
2018-01-08 23:00:00 9.6 4 Noroeste 14 Oeste 0 -- -- 76
2018-01-08 22:00:00 9.6 4 Noroeste 11 Sudoeste 0 -- -- 72
2018-01-08 21:00:00 10.4 3 Oeste 14 Noroeste 0 -- -- 66
2018-01-08 20:00:00 10.9 6 Noroeste 18 Oeste 0 -- -- 69
2018-01-08 19:00:00 11.2 7 Noroeste 32 Norte 0 -- -- 70
2018-01-08 18:00:00 11.3 14 Noroeste 30 Noroeste 0 -- -- 70
2018-01-08 17:00:00 11.5 16 Noroeste 27 Noroeste 0 -- -- 71
2018-01-08 16:00:00 11.8 6 Oeste 25 Noroeste 0 -- -- 74
2018-01-08 15:00:00 12.2 12 Noroeste 30 Noroeste 0 -- -- 71
2018-01-08 14:00:00 12.4 14 Noroeste 29 Oeste 0 -- -- 70
2018-01-08 13:00:00 12.3 13 Noroeste 24 Norte 0 -- -- 72
2018-01-08 12:00:00 12.2 4 Norte 15 Nordeste 0 -- -- 75
2018-01-08 11:00:00 11.9 4 Norte 19 Norte 0 -- -- 74
2018-01-08 10:00:00 11.6 9 Nordeste 22 Nordeste 0 -- -- 78
2018-01-08 09:00:00 9.5 4 Norte 15 Nordeste 0 -- -- 84
2018-01-08 08:00:00 7.9 5 Norte 13 Norte 0 -- -- 95
2018-01-08 07:00:00 5 0 Calma 6 Noroeste 0 -- -- 94
2018-01-08 06:00:00 5.4 0 Calma 6 Norte 0 -- -- 95
2018-01-08 05:00:00 5.2 0 Calma 11 Norte 0 -- -- 94
2018-01-08 04:00:00 6.4 7 Norte 15 Norte 0 -- -- 95
2018-01-08 03:00:00 5.5 0 Calma 10 Noroeste 0 -- -- 96
2018-01-08 02:00:00 4.4 2 Nordeste 6 Este 0 -- -- 96
2018-01-08 01:00:00 4.6 0 Calma 7 Este 0 -- -- 96
2018-01-08 00:00:00 4.7 5 Este 8 Este 0 -- -- 96
2018-01-07 23:00:00 5.8 4 Este 8 Este 0 -- -- 95
2018-01-07 22:00:00 5.6 3 Este 8 Este 0 -- -- 95
2018-01-07 21:00:00 6.3 0 Calma 7 Este 0 -- -- 94
2018-01-07 20:00:00 6.3 0 Calma 9 Norte 0 -- -- 93
2018-01-07 19:00:00 7 3 Este 5 Este 0 -- -- 90
2018-01-07 18:00:00 8.3 0 Calma 6 Noroeste 0 -- -- 86
2018-01-07 17:00:00 14.4 0 Calma 8 Sudeste 0 -- -- 75
2018-01-07 16:00:00 12.9 4 Sudeste 8 Sudeste 0 -- -- 84
2018-01-07 15:00:00 13.9 2 Noroeste 7 Norte 0 -- -- 88
2018-01-07 14:00:00 11.7 3 Nordeste 10 Norte 0 -- -- 92
2018-01-07 13:00:00 10.9 7 Norte 13 Norte 0 -- -- 93
2018-01-07 12:00:00 10.5 9 Norte 15 Norte 0 -- -- 93
2018-01-07 11:00:00 9.7 4 Norte 13 Norte 0 -- -- 93
2018-01-07 10:00:00 8.8 5 Noroeste 15 Nordeste 6 -- -- 92
2018-01-07 09:00:00 9.7 8 Este 15 Este 0.8 -- -- 89
2018-01-07 08:00:00 10.2 4 Este 34 Sudoeste 1.8 -- -- 82
2018-01-07 07:00:00 13.3 17 Sudoeste 31 Sur 0 -- -- 67
2018-01-07 06:00:00 13.4 16 Sudoeste 30 Sudoeste 0 -- -- 71
2018-01-07 05:00:00 13.5 13 Sur 35 Sur 0 -- -- 70
2018-01-07 04:00:00 13.7 18 Sur 38 Sur 0 -- -- 70
2018-01-07 03:00:00 13.9 19 Sur 36 Sur 0 -- -- 71
2018-01-07 02:00:00 14 22 Sur 41 Sur 0 -- -- 71
2018-01-07 01:00:00 14.6 27 Sudoeste 42 Sudoeste 0 -- -- 68
2018-01-07 00:00:00 14.9 21 Sur 40 Sur 0 -- -- 72
2018-01-06 23:00:00 15.4 17 Sudoeste 28 Sudoeste 0 -- -- 77
2018-01-06 22:00:00 15.4 13 Sudoeste 28 Sur 0 -- -- 78
2018-01-06 21:00:00 15.4 12 Sudoeste 24 Sur 0 -- -- 77
2018-01-06 20:00:00 15.2 6 Sur 28 Sur 0 -- -- 71
2018-01-06 19:00:00 16.2 12 Sur 28 Sur 0 -- -- 69
2018-01-06 18:00:00 16.2 11 Sudeste 23 Sudeste 0 -- -- 69
2018-01-06 17:00:00 16.8 13 Sudeste 28 Sudeste 0 -- -- 68
2018-01-06 16:00:00 17.1 12 Sudeste 28 Sudeste 0 -- -- 67
2018-01-06 15:00:00 17 12 Sudeste 31 Sudeste 0 -- -- 68
2018-01-06 14:00:00 17.1 10 Este 26 Este 0 -- -- 70
2018-01-06 13:00:00 17 12 Este 31 Sudeste 0 -- -- 76
2018-01-06 12:00:00 16.4 10 Este 27 Este 0 -- -- 80
2018-01-06 11:00:00 15.4 8 Este 22 Nordeste 0 -- -- 86
2018-01-06 10:00:00 14.4 7 Este 17 Este 0 -- -- 90
2018-01-06 09:00:00 10.6 3 Norte 6 Nordeste 0 -- -- 93
2018-01-06 08:00:00 11.8 3 Este 13 Este 0 -- -- 92
2018-01-06 07:00:00 12.1 6 Este 11 Este 0 -- -- 94
2018-01-06 06:00:00 11.5 3 Nordeste 8 Nordeste 0 -- -- 95
2018-01-06 05:00:00 10.4 3 Nordeste 9 Este 0 -- -- 93
2018-01-06 04:00:00 12.1 5 Este 10 Sur 0 -- -- 91
2018-01-06 03:00:00 13.7 4 Sur 14 Sudoeste 0 -- -- 90
2018-01-06 02:00:00 13.8 6 Sudoeste 16 Sudoeste 0 -- -- 91
2018-01-06 01:00:00 14.2 7 Sudoeste 15 Sudoeste 0 -- -- 91
2018-01-06 00:00:00 13.6 6 Sudoeste 12 Sudoeste 0 -- -- 90
2018-01-05 23:00:00 12.5 5 Oeste 13 Sudoeste 0 -- -- 86
2018-01-05 22:00:00 13.6 8 Oeste 17 Oeste 0 -- -- 85
2018-01-05 21:00:00 14 10 Sudoeste 19 Sudoeste 0 -- -- 83
2018-01-05 20:00:00 14 7 Oeste 20 Sudoeste 0 -- -- 82
2018-01-05 19:00:00 14.3 9 Oeste 25 Sudoeste 0 -- -- 76
2018-01-05 18:00:00 15.1 11 Sudoeste 24 Sudoeste 0 -- -- 64
2018-01-05 17:00:00 16.2 13 Oeste 32 Oeste 0 -- -- 60
2018-01-05 16:00:00 17.3 16 Oeste 36 Sudoeste 0 -- -- 58
2018-01-05 15:00:00 17.7 14 Oeste 40 Oeste 0 -- -- 59
2018-01-05 14:00:00 17.8 15 Oeste 35 Oeste 0 -- -- 62
2018-01-05 13:00:00 17.1 20 Oeste 42 Oeste 0 -- -- 64
2018-01-05 12:00:00 16.7 23 Oeste 49 Oeste 0 -- -- 65
2018-01-05 11:00:00 16.2 17 Oeste 32 Sudoeste 0 -- -- 72
2018-01-05 10:00:00 15 14 Oeste -- -- -- -- -- 89
2018-01-05 09:00:00 -- -- -- -- -- -- -- -- --
2018-01-05 08:00:00 6.7 3 Nordeste 6 Este 0 -- -- 97
2018-01-05 07:00:00 6.8 2 Este 7 Este 0 -- -- 97
2018-01-05 06:00:00 6.9 0 Calma 8 Este 0 -- -- 96
2018-01-05 05:00:00 6.9 2 Norte 7 Noroeste 0 -- -- 97
2018-01-05 04:00:00 7.7 3 Sudeste 8 Este 0 -- -- 95
2018-01-05 03:00:00 8.3 4 Nordeste 8 Norte 0 -- -- 94
2018-01-05 02:00:00 9.2 4 Norte 13 Este 0 -- -- 94
2018-01-05 01:00:00 9.9 5 Norte 12 Noroeste 0 -- -- 93
2018-01-05 00:00:00 11.6 2 Sudoeste 7 Sur 0 -- -- 91
2018-01-04 23:00:00 10.5 0 Calma 6 Sudeste 0 -- -- 91
2018-01-04 22:00:00 11.5 2 Norte 9 Noroeste 0 -- -- 88
2018-01-04 21:00:00 11.8 2 Oeste 13 Noroeste 0 -- -- 86
2018-01-04 20:00:00 14.2 8 Noroeste 20 Noroeste 0 -- -- 81
2018-01-04 19:00:00 15.5 8 Oeste 22 Oeste 0 -- -- 80
2018-01-04 18:00:00 15.1 2 Oeste 22 Sudoeste 0 -- -- 78
2018-01-04 17:00:00 16.9 9 Sudoeste 32 Oeste 0 -- -- 72
2018-01-04 16:00:00 18.2 8 Sudoeste 36 Oeste 0 -- -- 70
2018-01-04 15:00:00 18.4 14 Oeste 36 Noroeste 0 -- -- 69
2018-01-04 14:00:00 19.8 14 Oeste 30 Oeste 0 -- -- 64
2018-01-04 13:00:00 19.5 13 Noroeste 38 Oeste 0 -- -- 67
2018-01-04 12:00:00 18.5 20 Oeste 40 Oeste 0 -- -- 67
2018-01-04 11:00:00 20 24 Noroeste 38 Noroeste 0 -- -- 55
2018-01-04 10:00:00 19.3 23 Noroeste 40 Noroeste 0 -- -- 58
2018-01-04 09:00:00 19.2 24 Noroeste 44 Noroeste 0 -- -- 57
2018-01-04 08:00:00 18.8 17 Noroeste 42 Noroeste 0 -- -- 58
2018-01-04 07:00:00 18.6 18 Noroeste 41 Noroeste 0 -- -- 60
2018-01-04 06:00:00 16.9 14 Oeste 41 Noroeste 0 -- -- 66
2018-01-04 05:00:00 18.9 16 Oeste 37 Noroeste 0 -- -- 61
2018-01-04 04:00:00 17.7 21 Oeste 33 Noroeste 0 -- -- 72
2018-01-04 03:00:00 15.9 14 Oeste 30 Noroeste 0 -- -- 87
2018-01-04 02:00:00 10.8 2 Norte 7 Norte 0 -- -- 93
2018-01-04 01:00:00 10.7 4 Nordeste 12 Este 0 -- -- 91
2018-01-04 00:00:00 11.2 4 Este 13 Este 0 -- -- 87
2018-01-03 23:00:00 12.1 6 Nordeste 16 Oeste 0 -- -- 84
2018-01-03 22:00:00 14.4 6 Noroeste 27 Oeste 0 -- -- 83
2018-01-03 21:00:00 16.3 15 Oeste 32 Oeste 0 -- -- 75
2018-01-03 20:00:00 15.9 19 Oeste 32 Oeste 0 -- -- 80
2018-01-03 19:00:00 16 17 Oeste 41 Oeste 0 -- -- 77
2018-01-03 18:00:00 16.2 27 Oeste 42 Oeste 0 -- -- 77
2018-01-03 17:00:00 17 23 Oeste 38 Oeste 0 -- -- 73
2018-01-03 16:00:00 17.9 19 Oeste 40 Oeste 0 -- -- 70
2018-01-03 15:00:00 19 21 Oeste 40 Oeste 0 -- -- 68
2018-01-03 14:00:00 17.4 21 Oeste 33 Oeste 0 -- -- 73
2018-01-03 13:00:00 17.7 17 Oeste 32 Sudoeste 0 -- -- 71
2018-01-03 12:00:00 17.6 18 Oeste 32 Sudoeste 0 -- -- 69
2018-01-03 11:00:00 17 12 Oeste 27 Noroeste 0 -- -- 69
2018-01-03 10:00:00 17 13 Oeste 36 Noroeste 0 -- -- 67
2018-01-03 09:00:00 17.7 16 Oeste 31 Oeste 0 -- -- 63
2018-01-03 08:00:00 16.3 10 Oeste 24 Noroeste 0 -- -- 65
2018-01-03 07:00:00 16.7 12 Noroeste 31 Noroeste 0 -- -- 65
2018-01-03 06:00:00 16.6 15 Noroeste 29 Noroeste 0 -- -- 66
2018-01-03 05:00:00 15.4 15 Noroeste 28 Noroeste 0 -- -- 72
2018-01-03 04:00:00 15.3 11 Noroeste 25 Norte 0 -- -- 70
2018-01-03 03:00:00 15.7 9 Noroeste 26 Noroeste 0 -- -- 72
2018-01-03 02:00:00 16.1 8 Noroeste 19 Noroeste 0 -- -- 73
2018-01-03 01:00:00 14.9 6 Noroeste 29 Noroeste 0 -- -- 70
2018-01-03 00:00:00 16.8 15 Noroeste 35 Noroeste 0 -- -- 69
2018-01-02 23:00:00 15.7 14 Oeste 28 Oeste 0 -- -- 74
2018-01-02 22:00:00 15.6 15 Noroeste 35 Oeste 0 -- -- 74
2018-01-02 21:00:00 15.2 15 Oeste 31 Oeste 0 -- -- 78
2018-01-02 20:00:00 14.5 15 Noroeste 24 Noroeste 0 -- -- 80
2018-01-02 19:00:00 14.2 13 Oeste 27 Noroeste 0 -- -- 78
2018-01-02 18:00:00 14.4 15 Oeste 23 Noroeste 0 -- -- 76
2018-01-02 17:00:00 15.5 10 Oeste 28 Oeste 0 -- -- 70
2018-01-02 16:00:00 15.6 9 Oeste 22 Noroeste 0 -- -- 66
2018-01-02 15:00:00 16.2 12 Noroeste 28 Noroeste 0 -- -- 71
2018-01-02 14:00:00 16.2 17 Noroeste 26 Oeste 0 -- -- 70
2018-01-02 13:00:00 16.4 9 Oeste 27 Oeste 0 -- -- 74
2018-01-02 12:00:00 16.8 9 Noroeste 24 Noroeste 0 -- -- 75
2018-01-02 11:00:00 16.1 9 Noroeste 18 Noroeste 0 -- -- 79
2018-01-02 10:00:00 14.6 5 Sudoeste 13 Sudoeste 0 -- -- 87
2018-01-02 09:00:00 10.7 0 Calma 13 Noroeste 0 -- -- 86
2018-01-02 08:00:00 11.5 4 Norte 18 Noroeste 0 -- -- 81
2018-01-02 07:00:00 13.8 10 Oeste 19 Oeste 0 -- -- 79
2018-01-02 06:00:00 13.8 4 Oeste 27 Oeste 0 -- -- 73
2018-01-02 05:00:00 14.6 14 Noroeste 36 Noroeste 0 -- -- 70
2018-01-02 04:00:00 15.1 21 Oeste 37 Oeste 0 -- -- 65
2018-01-02 03:00:00 15.1 17 Oeste 49 Oeste 0 -- -- 66
2018-01-02 02:00:00 15.1 20 Oeste 47 Oeste 0 -- -- 63
2018-01-02 01:00:00 15.7 15 Noroeste 42 Noroeste 0 -- -- 58
2018-01-02 00:00:00 15.9 20 Noroeste 50 Oeste 0 -- -- 54
2018-01-01 23:00:00 15.5 12 Noroeste 36 Noroeste 0 -- -- 56
2018-01-01 22:00:00 14.9 15 Oeste 40 Oeste 0 -- -- 59
2018-01-01 21:00:00 15 19 Oeste 50 Oeste 0 -- -- 57
2018-01-01 20:00:00 15.2 20 Oeste 46 Oeste 0 -- -- 63
2018-01-01 19:00:00 14.3 14 Oeste 34 Oeste 0 -- -- 66
2018-01-01 18:00:00 14.8 22 Oeste 49 Oeste 0 -- -- 53
2018-01-01 17:00:00 15.3 16 Oeste 43 Oeste 0 -- -- 52
2018-01-01 16:00:00 15.8 14 Oeste 33 Oeste 0 -- -- 54
2018-01-01 15:00:00 15.9 14 Oeste 35 Oeste 0 -- -- 56
2018-01-01 14:00:00 17 11 Oeste 36 Noroeste 0 -- -- 49
2018-01-01 13:00:00 16.2 18 Oeste 43 Oeste 0 -- -- 45
2018-01-01 12:00:00 15.6 15 Noroeste 39 Noroeste 0 -- -- 47
2018-01-01 11:00:00 14.8 13 Noroeste 35 Norte 0 -- -- 49
2018-01-01 10:00:00 14.3 9 Norte 43 Noroeste 0 -- -- 48
2018-01-01 09:00:00 13.4 17 Noroeste 50 Noroeste 0 -- -- 51
2018-01-01 08:00:00 12.9 22 Noroeste 53 Norte 0 -- -- 51
2018-01-01 07:00:00 13.3 20 Noroeste 46 Noroeste 0 -- -- 54
2018-01-01 06:00:00 13.1 13 Norte 55 Oeste 0 -- -- 59
2018-01-01 05:00:00 13.5 15 Norte 48 Norte 0 -- -- 59
2018-01-01 04:00:00 13.2 7 Noroeste 35 Oeste 0 -- -- 62
2018-01-01 03:00:00 13.8 15 Noroeste 49 Norte 0 -- -- 63
2018-01-01 02:00:00 14.6 21 Noroeste 65 Noroeste 0 -- -- 62
2018-01-01 01:00:00 15.8 15 Noroeste 56 Noroeste 0 -- -- 68
2018-01-01 00:00:00 15.9 19 Noroeste 51 Noroeste 0 -- -- 69
2017-12-31 23:00:00 15.4 16 Noroeste 50 Oeste 0 -- -- 73
2017-12-31 22:00:00 15.9 23 Oeste 66 Sudoeste 0 -- -- 70
2017-12-31 21:00:00 16.9 35 Oeste 67 Oeste 0 -- -- 69
2017-12-31 20:00:00 16.3 26 Oeste 46 Sudoeste 0 -- -- 78
2017-12-31 19:00:00 15.2 15 Oeste 33 Sudoeste 0 -- -- 90
2017-12-31 18:00:00 14.5 3 Oeste 18 Oeste 0 -- -- 91
2017-12-31 17:00:00 15.1 7 Sudoeste 19 Sudoeste 0 -- -- 91
2017-12-31 16:00:00 15.2 9 Sudoeste 18 Sudoeste 0 -- -- 91
2017-12-31 15:00:00 15.7 14 Sudoeste 24 Sudoeste 0 -- -- 91
2017-12-31 14:00:00 15.8 12 Sudoeste 22 Sudoeste 0 -- -- 93
2017-12-31 13:00:00 16 10 Sudoeste 17 Sudoeste 0 -- -- 93
2017-12-31 12:00:00 15.8 7 Sudoeste 14 Sudoeste 0 -- -- 95
2017-12-31 11:00:00 14.5 0 Calma 5 Este 0 -- -- 96
2017-12-31 10:00:00 11.7 2 Norte 9 Este 0 -- -- 97
2017-12-31 09:00:00 10.1 2 Nordeste 6 Este 0 -- -- 98
2017-12-31 08:00:00 7.9 5 Este 9 Este 0 -- -- 96
2017-12-31 07:00:00 7.4 3 Norte 10 Nordeste 0 -- -- 96
2017-12-31 06:00:00 8.7 2 Nordeste 6 Noroeste 0 -- -- 94
2017-12-31 05:00:00 9.2 0 Calma 6 Este 0 -- -- 95
2017-12-31 04:00:00 8 2 Este 6 Este 0 -- -- 95
2017-12-31 03:00:00 8 4 Nordeste 10 Este 0 -- -- 94
2017-12-31 02:00:00 8.3 3 Nordeste 9 Este 0 -- -- 94
2017-12-31 01:00:00 8.5 4 Nordeste 12 Este 0 -- -- 92